createdAt,value
2022-11-03T00:00:12.796Z,78.95
2022-11-03T00:01:10.944Z,78.44
2022-11-03T00:02:10.863Z,78.85
2022-11-03T00:03:10.718Z,78.75
2022-11-03T00:04:10.926Z,77.83
2022-11-03T00:05:10.694Z,78.13
2022-11-03T00:06:10.626Z,78.44
2022-11-03T00:07:10.784Z,78.44
2022-11-03T00:09:10.570Z,78.34
2022-11-03T00:10:10.792Z,78.75
2022-11-03T00:11:10.528Z,78.23
2022-11-03T00:12:10.677Z,78.44
2022-11-03T00:13:10.579Z,78.75
2022-11-03T00:14:10.564Z,78.95
2022-11-03T00:15:10.722Z,79.25
2022-11-03T00:16:10.653Z,78.13
2022-11-03T00:17:10.575Z,78.03
2022-11-03T00:18:10.625Z,78.44
2022-11-03T00:19:10.525Z,77.89
2022-11-03T00:20:11.071Z,78.09
2022-11-03T00:21:11.286Z,78.20
2022-11-03T00:22:10.601Z,78.00
2022-11-03T00:23:10.453Z,78.20
2022-11-03T00:24:10.436Z,78.20
2022-11-03T00:25:10.901Z,78.41
2022-11-03T00:26:10.465Z,78.81
2022-11-03T00:27:10.807Z,78.50
2022-11-03T00:28:10.806Z,79.02
2022-11-03T00:29:10.774Z,78.50
2022-11-03T00:30:10.407Z,78.61
2022-11-03T00:31:10.718Z,78.81
2022-11-03T00:32:10.356Z,78.61
2022-11-03T00:33:10.848Z,78.91
2022-11-03T00:34:10.531Z,79.12
2022-11-03T00:35:10.354Z,79.12
2022-11-03T00:36:10.442Z,78.91
2022-11-03T00:37:10.804Z,79.32
2022-11-03T00:38:10.470Z,79.73
2022-11-03T00:39:10.318Z,79.43
2022-11-03T00:40:10.319Z,79.52
2022-11-03T00:41:10.394Z,79.52
2022-11-03T00:42:10.419Z,79.12
2022-11-03T00:43:10.237Z,79.43
2022-11-03T00:44:10.275Z,79.12
2022-11-03T00:45:10.380Z,79.43
2022-11-03T00:46:10.247Z,79.12
2022-11-03T00:47:10.548Z,79.52
2022-11-03T00:48:10.500Z,79.43
2022-11-03T00:49:10.520Z,79.02
2022-11-03T00:50:10.316Z,79.32
2022-11-03T00:51:10.204Z,78.91
2022-11-03T00:52:10.168Z,79.22
2022-11-03T00:53:10.153Z,79.43
2022-11-03T00:54:10.248Z,79.22
2022-11-03T00:55:10.252Z,79.73
2022-11-03T00:56:10.439Z,79.28
2022-11-03T00:57:10.365Z,79.49
2022-11-03T00:58:10.122Z,79.93
2022-11-03T00:59:10.296Z,79.73
2022-11-03T01:00:10.556Z,79.63
2022-11-03T01:01:10.371Z,79.73
2022-11-03T01:02:10.679Z,79.59
2022-11-03T01:03:10.035Z,79.69
2022-11-03T01:04:10.307Z,79.69
2022-11-03T01:05:10.598Z,79.69
2022-11-03T01:06:10.049Z,80.10
2022-11-03T01:07:10.045Z,80.20
2022-11-03T01:08:10.020Z,79.83
2022-11-03T01:09:10.174Z,80.14
2022-11-03T01:10:09.963Z,80.34
2022-11-03T01:11:10.124Z,80.14
2022-11-03T01:12:09.969Z,80.55
2022-11-03T01:13:09.896Z,80.44
2022-11-03T01:14:10.005Z,80.55
2022-11-03T01:15:10.019Z,80.75
2022-11-03T01:16:09.935Z,80.65
2022-11-03T01:17:09.901Z,80.34
2022-11-03T01:18:10.045Z,80.51
2022-11-03T01:19:10.486Z,80.55
2022-11-03T01:20:09.924Z,80.44
2022-11-03T01:21:09.873Z,80.30
2022-11-03T01:22:11.271Z,80.91
2022-11-03T01:23:10.268Z,81.05
2022-11-03T01:24:09.962Z,80.96
2022-11-03T01:25:09.887Z,81.37
2022-11-03T01:26:09.868Z,81.67
2022-11-03T01:27:09.871Z,82.08
2022-11-03T01:28:10.195Z,81.57
2022-11-03T01:29:09.791Z,81.60
2022-11-03T01:30:09.983Z,81.98
2022-11-03T01:31:10.256Z,81.81
2022-11-03T01:32:10.173Z,82.32
2022-11-03T01:33:09.840Z,82.22
2022-11-03T01:34:10.321Z,81.91
2022-11-03T01:35:10.093Z,82.12
2022-11-03T01:36:09.750Z,82.42
2022-11-03T01:37:09.809Z,82.53
2022-11-03T01:38:10.134Z,82.83
2022-11-03T01:39:09.914Z,82.93
2022-11-03T01:40:10.008Z,83.14
2022-11-03T01:41:09.717Z,82.83
2022-11-03T01:42:09.674Z,82.73
2022-11-03T01:43:09.708Z,82.83
2022-11-03T01:44:09.646Z,83.04
2022-11-03T01:45:10.224Z,82.83
2022-11-03T01:46:09.780Z,82.73
2022-11-03T01:47:09.602Z,83.24
2022-11-03T01:48:09.781Z,83.04
2022-11-03T01:49:09.672Z,83.04
2022-11-03T01:50:09.608Z,83.04
2022-11-03T01:51:09.738Z,83.24
2022-11-03T01:52:09.581Z,83.65
2022-11-03T01:53:09.695Z,83.44
2022-11-03T01:54:09.538Z,83.85
2022-11-03T01:55:09.651Z,83.65
2022-11-03T01:56:09.547Z,83.89
2022-11-03T01:57:09.990Z,83.48
2022-11-03T01:58:09.473Z,83.34
2022-11-03T01:59:09.636Z,83.75
2022-11-03T02:00:09.659Z,83.65
2022-11-03T02:01:09.543Z,84.06
2022-11-03T02:02:09.676Z,83.75
2022-11-03T02:03:09.718Z,83.79
2022-11-03T02:04:09.425Z,84.00
2022-11-03T02:05:09.432Z,84.09
2022-11-03T02:06:09.515Z,83.89
2022-11-03T02:07:10.053Z,84.20
2022-11-03T02:09:09.445Z,84.20
2022-11-03T02:10:09.386Z,83.89
2022-11-03T02:11:09.551Z,84.09
2022-11-03T02:12:09.610Z,83.69
2022-11-03T02:13:09.307Z,83.75
2022-11-03T02:14:09.371Z,83.75
2022-11-03T02:15:09.278Z,83.95
2022-11-03T02:16:09.341Z,83.75
2022-11-03T02:17:09.432Z,83.85
2022-11-03T02:18:09.349Z,83.75
2022-11-03T02:19:09.706Z,83.95
2022-11-03T02:20:09.309Z,84.16
2022-11-03T02:21:09.244Z,84.26
2022-11-03T02:22:09.312Z,84.16
2022-11-03T02:23:09.836Z,84.36
2022-11-03T02:24:09.758Z,84.47
2022-11-03T02:25:09.329Z,84.98
2022-11-03T02:26:09.280Z,84.47
2022-11-03T02:27:09.590Z,84.47
2022-11-03T02:28:09.488Z,84.36
2022-11-03T02:29:09.337Z,84.47
2022-11-03T02:30:09.185Z,84.06
2022-11-03T02:31:09.349Z,83.95
2022-11-03T02:32:09.294Z,84.16
2022-11-03T02:33:09.417Z,84.06
2022-11-03T02:34:09.124Z,84.26
2022-11-03T02:35:09.131Z,83.85
2022-11-03T02:36:09.345Z,84.06
2022-11-03T02:37:09.119Z,84.06
2022-11-03T02:38:09.344Z,84.16
2022-11-03T02:39:09.110Z,84.36
2022-11-03T02:40:09.125Z,84.77
2022-11-03T02:41:09.082Z,84.67
2022-11-03T02:42:09.264Z,84.88
2022-11-03T02:43:09.356Z,84.98
2022-11-03T02:44:09.081Z,84.88
2022-11-03T02:45:11.990Z,85.08
2022-11-03T02:46:09.041Z,85.18
2022-11-03T02:47:09.021Z,85.28
2022-11-03T02:48:09.008Z,85.08
2022-11-03T02:49:09.098Z,84.88
2022-11-03T02:50:09.154Z,85.08
2022-11-03T02:51:09.102Z,85.08
2022-11-03T02:52:08.974Z,85.28
2022-11-03T02:53:09.293Z,85.18
2022-11-03T02:54:08.930Z,84.98
2022-11-03T02:55:08.910Z,85.08
2022-11-03T02:56:08.963Z,85.49
2022-11-03T02:57:08.972Z,85.08
2022-11-03T02:58:08.896Z,85.08
2022-11-03T02:59:08.932Z,85.18
2022-11-03T03:00:09.108Z,84.98
2022-11-03T03:01:09.330Z,85.28
2022-11-03T03:02:09.456Z,85.18
2022-11-03T03:03:09.493Z,85.08
2022-11-03T03:04:08.847Z,85.28
2022-11-03T03:05:09.416Z,85.28
2022-11-03T03:06:09.003Z,84.88
2022-11-03T03:07:09.192Z,84.77
2022-11-03T03:08:08.850Z,84.77
2022-11-03T03:09:08.799Z,85.18
2022-11-03T03:10:08.766Z,84.77
2022-11-03T03:11:08.781Z,84.98
2022-11-03T03:12:08.759Z,85.18
2022-11-03T03:13:09.067Z,85.18
2022-11-03T03:14:08.783Z,85.18
2022-11-03T03:15:08.727Z,85.38
2022-11-03T03:16:08.712Z,85.59
2022-11-03T03:17:08.749Z,85.49
2022-11-03T03:18:08.689Z,85.49
2022-11-03T03:19:08.671Z,85.28
2022-11-03T03:20:08.687Z,85.28
2022-11-03T03:21:08.681Z,85.28
2022-11-03T03:22:08.659Z,85.28
2022-11-03T03:23:10.526Z,85.38
2022-11-03T03:24:08.664Z,85.38
2022-11-03T03:25:08.634Z,85.38
2022-11-03T03:26:09.081Z,85.59
2022-11-03T03:27:08.586Z,85.79
2022-11-03T03:28:08.590Z,85.89
2022-11-03T03:29:08.769Z,85.69
2022-11-03T03:30:08.601Z,85.69
2022-11-03T03:31:08.768Z,85.49
2022-11-03T03:32:09.189Z,85.69
2022-11-03T03:33:09.160Z,85.28
2022-11-03T03:34:23.727Z,85.28
2022-11-03T03:35:08.519Z,86.00
2022-11-03T03:36:08.653Z,85.79
2022-11-03T03:37:08.684Z,85.59
2022-11-03T03:38:08.861Z,85.49
2022-11-03T03:39:08.660Z,85.79
2022-11-03T03:40:08.471Z,85.59
2022-11-03T03:41:10.862Z,85.79
2022-11-03T03:42:08.550Z,85.49
2022-11-03T03:43:08.701Z,85.49
2022-11-03T03:44:08.436Z,85.89
2022-11-03T03:45:08.465Z,85.89
2022-11-03T03:46:08.432Z,85.79
2022-11-03T03:47:08.450Z,85.89
2022-11-03T03:48:08.781Z,85.79
2022-11-03T03:49:08.788Z,85.89
2022-11-03T03:50:08.417Z,86.30
2022-11-03T03:51:08.376Z,86.20
2022-11-03T03:52:08.373Z,86.00
2022-11-03T03:53:08.308Z,86.00
2022-11-03T03:54:08.370Z,85.89
2022-11-03T03:55:08.321Z,85.79
2022-11-03T03:56:08.390Z,85.59
2022-11-03T03:57:08.297Z,85.59
2022-11-03T03:58:08.759Z,85.38
2022-11-03T03:59:08.261Z,85.45
2022-11-03T04:00:08.464Z,85.35
2022-11-03T04:01:08.363Z,85.24
2022-11-03T04:02:08.492Z,85.45
2022-11-03T04:03:08.277Z,85.75
2022-11-03T04:04:08.495Z,85.96
2022-11-03T04:05:08.595Z,85.79
2022-11-03T04:06:08.336Z,86.10
2022-11-03T04:07:08.379Z,85.69
2022-11-03T04:08:08.546Z,85.79
2022-11-03T04:09:08.163Z,86.00
2022-11-03T04:10:08.705Z,85.89
2022-11-03T04:11:08.157Z,85.79
2022-11-03T04:12:08.320Z,85.79
2022-11-03T04:13:08.235Z,85.89
2022-11-03T04:14:08.299Z,85.86
2022-11-03T04:15:08.278Z,85.65
2022-11-03T04:16:08.332Z,85.65
2022-11-03T04:17:08.298Z,85.96
2022-11-03T04:18:08.636Z,85.96
2022-11-03T04:19:08.279Z,85.86
2022-11-03T04:20:08.273Z,85.65
2022-11-03T04:21:08.212Z,85.86
2022-11-03T04:22:08.034Z,85.96
2022-11-03T04:23:08.032Z,85.21
2022-11-03T04:24:08.207Z,85.30
2022-11-03T04:25:08.022Z,85.30
2022-11-03T04:26:08.287Z,85.51
2022-11-03T04:27:07.996Z,85.10
2022-11-03T04:28:08.482Z,85.30
2022-11-03T04:29:07.962Z,85.41
2022-11-03T04:30:07.958Z,85.30
2022-11-03T04:31:08.051Z,85.51
2022-11-03T04:32:08.016Z,85.41
2022-11-03T04:33:08.126Z,85.82
2022-11-03T04:34:07.937Z,85.71
2022-11-03T04:35:08.285Z,85.61
2022-11-03T04:36:08.269Z,85.51
2022-11-03T04:37:07.892Z,85.71
2022-11-03T04:38:08.883Z,85.82
2022-11-03T04:39:07.902Z,85.61
2022-11-03T04:40:07.873Z,85.71
2022-11-03T04:41:08.695Z,85.92
2022-11-03T04:42:07.854Z,85.92
2022-11-03T04:43:08.209Z,85.71
2022-11-03T04:44:07.877Z,85.92
2022-11-03T04:45:07.858Z,85.82
2022-11-03T04:46:07.812Z,86.02
2022-11-03T04:47:07.918Z,85.82
2022-11-03T04:48:07.790Z,86.02
2022-11-03T04:49:07.930Z,85.82
2022-11-03T04:50:07.803Z,85.88
2022-11-03T04:51:07.809Z,85.68
2022-11-03T04:52:07.751Z,85.47
2022-11-03T04:53:08.133Z,85.27
2022-11-03T04:54:07.759Z,85.68
2022-11-03T04:55:07.748Z,85.16
2022-11-03T04:56:07.940Z,85.37
2022-11-03T04:57:07.824Z,85.77
2022-11-03T04:58:07.679Z,85.57
2022-11-03T04:59:07.722Z,85.68
2022-11-03T05:00:07.751Z,85.57
2022-11-03T05:01:07.768Z,85.88
2022-11-03T05:03:08.011Z,85.68
2022-11-03T05:04:07.842Z,85.77
2022-11-03T05:05:07.831Z,85.77
2022-11-03T05:06:07.652Z,85.77
2022-11-03T05:07:08.153Z,85.82
2022-11-03T05:08:07.656Z,86.02
2022-11-03T05:09:07.607Z,85.92
2022-11-03T05:10:07.603Z,85.92
2022-11-03T05:11:07.583Z,86.22
2022-11-03T05:12:07.568Z,86.33
2022-11-03T05:13:08.041Z,86.12
2022-11-03T05:14:07.647Z,86.43
2022-11-03T05:15:07.583Z,86.22
2022-11-03T05:16:07.569Z,86.33
2022-11-03T05:17:07.507Z,86.12
2022-11-03T05:18:07.880Z,86.43
2022-11-03T05:19:07.533Z,86.12
2022-11-03T05:20:07.602Z,86.33
2022-11-03T05:21:07.474Z,86.33
2022-11-03T05:22:07.459Z,86.33
2022-11-03T05:23:08.136Z,86.43
2022-11-03T05:24:07.529Z,86.43
2022-11-03T05:25:07.513Z,86.53
2022-11-03T05:26:07.702Z,86.22
2022-11-03T05:27:07.433Z,86.33
2022-11-03T05:28:07.712Z,86.43
2022-11-03T05:29:07.612Z,86.33
2022-11-03T05:30:07.457Z,86.02
2022-11-03T05:31:07.548Z,85.92
2022-11-03T05:32:07.406Z,86.39
2022-11-03T05:33:07.416Z,85.88
2022-11-03T05:34:07.352Z,85.88
2022-11-03T05:35:07.462Z,85.88
2022-11-03T05:36:07.323Z,85.88
2022-11-03T05:37:07.477Z,85.68
2022-11-03T05:38:07.926Z,85.77
2022-11-03T05:39:07.504Z,85.47
2022-11-03T05:40:07.299Z,85.57
2022-11-03T05:41:07.292Z,85.57
2022-11-03T05:42:07.272Z,85.68
2022-11-03T05:43:11.980Z,85.98
2022-11-03T05:44:07.469Z,85.98
2022-11-03T05:45:07.282Z,85.88
2022-11-03T05:47:08.413Z,86.22
2022-11-03T05:48:07.493Z,86.43
2022-11-03T05:49:07.154Z,86.12
2022-11-03T05:50:07.339Z,86.33
2022-11-03T05:51:07.193Z,86.22
2022-11-03T05:52:07.393Z,86.22
2022-11-03T05:53:07.265Z,86.53
2022-11-03T05:54:07.279Z,86.43
2022-11-03T05:55:07.138Z,86.33
2022-11-03T05:56:07.711Z,86.02
2022-11-03T05:57:07.311Z,86.22
2022-11-03T05:58:08.100Z,86.02
2022-11-03T05:59:07.385Z,86.02
2022-11-03T06:00:07.252Z,85.37
2022-11-03T06:01:07.453Z,85.27
2022-11-03T06:02:07.525Z,85.16
2022-11-03T06:03:07.101Z,85.06
2022-11-03T06:04:07.123Z,85.27
2022-11-03T06:05:07.469Z,85.37
2022-11-03T06:06:07.021Z,85.06
2022-11-03T06:07:07.134Z,85.47
2022-11-03T06:08:07.527Z,85.37
2022-11-03T06:09:07.231Z,85.57
2022-11-03T06:10:06.967Z,85.57
2022-11-03T06:11:07.142Z,85.37
2022-11-03T06:12:07.111Z,85.16
2022-11-03T06:13:07.236Z,85.16
2022-11-03T06:14:06.977Z,85.16
2022-11-03T06:15:07.038Z,85.57
2022-11-03T06:16:07.369Z,85.77
2022-11-03T06:17:07.127Z,85.57
2022-11-03T06:18:07.034Z,85.06
2022-11-03T06:19:06.895Z,85.37
2022-11-03T06:20:06.908Z,85.16
2022-11-03T06:21:06.872Z,85.37
2022-11-03T06:22:06.994Z,85.37
2022-11-03T06:23:07.349Z,85.57
2022-11-03T06:24:07.092Z,85.27
2022-11-03T06:25:06.970Z,85.06
2022-11-03T06:26:06.991Z,85.37
2022-11-03T06:27:06.995Z,85.27
2022-11-03T06:28:06.865Z,85.47
2022-11-03T06:29:06.792Z,85.27
2022-11-03T06:30:06.995Z,85.68
2022-11-03T06:31:07.047Z,85.68
2022-11-03T06:32:06.903Z,85.47
2022-11-03T06:33:07.114Z,85.98
2022-11-03T06:34:07.435Z,85.71
2022-11-03T06:35:07.175Z,85.92
2022-11-03T06:36:06.742Z,85.51
2022-11-03T06:37:12.464Z,85.71
2022-11-03T06:38:06.773Z,85.71
2022-11-03T06:39:06.914Z,85.30
2022-11-03T06:40:06.695Z,85.57
2022-11-03T06:41:06.719Z,85.16
2022-11-03T06:42:06.862Z,85.27
2022-11-03T06:43:07.479Z,85.37
2022-11-03T06:44:07.136Z,85.27
2022-11-03T06:45:06.773Z,85.37
2022-11-03T06:46:06.858Z,85.68
2022-11-03T06:47:06.630Z,85.77
2022-11-03T06:48:06.640Z,85.16
2022-11-03T06:49:06.638Z,85.27
2022-11-03T06:50:06.718Z,85.06
2022-11-03T06:51:06.866Z,84.75
2022-11-03T06:52:06.729Z,84.96
2022-11-03T06:53:06.933Z,84.96
2022-11-03T06:54:06.522Z,85.16
2022-11-03T06:55:08.581Z,85.06
2022-11-03T06:56:06.596Z,84.96
2022-11-03T06:57:06.570Z,84.66
2022-11-03T06:58:06.573Z,84.66
2022-11-03T06:59:06.509Z,84.86
2022-11-03T07:00:28.627Z,84.96
2022-11-03T07:01:06.622Z,85.06
2022-11-03T07:02:06.617Z,84.86
2022-11-03T07:03:07.352Z,84.75
2022-11-03T07:04:06.456Z,84.66
2022-11-03T07:05:06.425Z,84.66
2022-11-03T07:06:06.451Z,84.55
2022-11-03T07:07:06.631Z,84.55
2022-11-03T07:08:06.498Z,84.51
2022-11-03T07:09:06.376Z,84.41
2022-11-03T07:10:06.412Z,84.72
2022-11-03T07:11:06.506Z,84.61
2022-11-03T07:12:06.643Z,84.51
2022-11-03T07:13:07.401Z,84.51
2022-11-03T07:14:06.401Z,84.00
2022-11-03T07:16:06.326Z,84.61
2022-11-03T07:17:06.386Z,84.41
2022-11-03T07:18:06.796Z,84.11
2022-11-03T07:19:06.272Z,84.51
2022-11-03T07:20:06.535Z,84.11
2022-11-03T07:21:06.448Z,83.70
2022-11-03T07:22:06.989Z,84.11
2022-11-03T07:23:06.277Z,84.00
2022-11-03T07:24:06.388Z,83.59
2022-11-03T07:25:06.469Z,83.45
2022-11-03T07:26:06.419Z,83.35
2022-11-03T07:27:06.340Z,83.45
2022-11-03T07:28:06.619Z,83.96
2022-11-03T07:29:06.413Z,83.65
2022-11-03T07:30:06.288Z,84.06
2022-11-03T07:31:06.243Z,83.76
2022-11-03T07:32:06.206Z,83.45
2022-11-03T07:33:06.156Z,83.45
2022-11-03T07:34:06.349Z,83.15
2022-11-03T07:35:06.341Z,82.94
2022-11-03T07:36:15.468Z,83.45
2022-11-03T07:37:06.274Z,83.11
2022-11-03T07:38:06.657Z,82.90
2022-11-03T07:39:06.142Z,82.29
2022-11-03T07:40:06.491Z,82.60
2022-11-03T07:41:06.180Z,82.80
2022-11-03T07:42:06.459Z,82.40
2022-11-03T07:43:06.286Z,82.26
2022-11-03T07:44:06.117Z,81.85
2022-11-03T07:45:06.037Z,81.24
2022-11-03T07:46:06.206Z,80.93
2022-11-03T07:47:06.471Z,81.51
2022-11-03T07:48:06.475Z,80.49
2022-11-03T07:49:06.014Z,81.06
2022-11-03T07:50:05.997Z,80.24
2022-11-03T07:51:05.975Z,79.43
2022-11-03T07:52:05.962Z,79.70
2022-11-03T07:53:05.963Z,79.60
2022-11-03T07:54:05.934Z,79.80
2022-11-03T07:55:06.125Z,79.39
2022-11-03T07:56:06.159Z,78.89
2022-11-03T07:57:06.031Z,78.38
2022-11-03T07:58:06.418Z,79.16
2022-11-03T07:59:05.912Z,78.08
2022-11-03T08:00:09.090Z,78.99
2022-11-03T08:01:06.509Z,78.99
2022-11-03T08:02:06.175Z,78.78
2022-11-03T08:03:06.452Z,78.44
2022-11-03T08:04:05.961Z,78.04
2022-11-03T08:05:06.128Z,77.94
2022-11-03T08:06:07.527Z,77.83
2022-11-03T08:07:06.126Z,77.94
2022-11-03T08:08:06.241Z,78.04
2022-11-03T08:09:05.904Z,78.24
2022-11-03T08:10:06.172Z,77.63
2022-11-03T08:11:06.701Z,78.51
2022-11-03T08:12:05.791Z,77.49
2022-11-03T08:13:06.037Z,77.39
2022-11-03T08:14:06.075Z,77.90
2022-11-03T08:15:05.764Z,77.49
2022-11-03T08:16:05.721Z,77.49
2022-11-03T08:17:05.773Z,77.29
2022-11-03T08:18:05.727Z,77.59
2022-11-03T08:19:05.918Z,77.59
2022-11-03T08:20:05.920Z,77.29
2022-11-03T08:21:05.995Z,76.61
2022-11-03T08:22:06.088Z,77.22
2022-11-03T08:23:24.463Z,76.82
2022-11-03T08:24:05.814Z,77.53
2022-11-03T08:25:06.458Z,76.92
2022-11-03T08:26:05.644Z,77.02
2022-11-03T08:27:05.631Z,77.43
2022-11-03T08:28:05.644Z,76.72
2022-11-03T08:29:05.793Z,77.22
2022-11-03T08:30:05.649Z,77.12
2022-11-03T08:31:11.171Z,76.51
2022-11-03T08:32:05.838Z,77.22
2022-11-03T08:33:06.004Z,77.53
2022-11-03T08:34:06.001Z,76.95
2022-11-03T08:35:05.805Z,78.17
2022-11-03T08:36:05.547Z,77.36
2022-11-03T08:37:05.712Z,77.77
2022-11-03T08:38:05.941Z,77.06
2022-11-03T08:39:05.629Z,77.47
2022-11-03T08:40:05.508Z,77.47
2022-11-03T08:41:05.586Z,77.12
2022-11-03T08:42:05.905Z,77.22
2022-11-03T08:43:05.456Z,77.02
2022-11-03T08:44:05.512Z,77.43
2022-11-03T08:45:05.438Z,77.43
2022-11-03T08:46:13.898Z,77.22
2022-11-03T08:47:05.655Z,77.22
2022-11-03T08:48:06.042Z,76.82
2022-11-03T08:49:05.380Z,77.02
2022-11-03T08:50:05.437Z,77.02
2022-11-03T08:51:05.357Z,77.43
2022-11-03T08:52:05.359Z,77.73
2022-11-03T08:53:05.386Z,77.53
2022-11-03T08:54:05.626Z,77.09
2022-11-03T08:55:05.660Z,77.59
2022-11-03T08:56:08.966Z,76.88
2022-11-03T08:57:05.373Z,75.76
2022-11-03T08:58:06.023Z,76.78
2022-11-03T08:59:05.321Z,76.48
2022-11-03T09:00:05.442Z,76.68
2022-11-03T09:01:05.909Z,77.09
2022-11-03T09:02:05.571Z,76.64
2022-11-03T09:03:05.824Z,76.85
2022-11-03T09:04:05.451Z,76.85
2022-11-03T09:05:05.527Z,75.52
2022-11-03T09:06:05.420Z,75.43
2022-11-03T09:07:05.235Z,75.22
2022-11-03T09:10:23.194Z,75.09
2022-11-03T09:11:05.371Z,74.78
2022-11-03T09:12:05.210Z,75.49
2022-11-03T09:13:05.703Z,74.38
2022-11-03T09:14:05.700Z,75.39
2022-11-03T09:15:05.455Z,74.17
2022-11-03T09:16:06.325Z,74.07
2022-11-03T09:17:05.193Z,74.27
2022-11-03T09:18:05.580Z,74.78
2022-11-03T09:19:05.370Z,73.87
2022-11-03T09:20:05.903Z,75.19
2022-11-03T09:21:05.256Z,75.35
2022-11-03T09:22:05.215Z,75.66
2022-11-03T09:23:05.360Z,73.73
2022-11-03T09:24:05.420Z,74.04
2022-11-03T09:25:05.520Z,74.95
2022-11-03T09:26:05.478Z,75.46
2022-11-03T09:27:05.158Z,75.76
2022-11-03T09:28:05.577Z,73.83
2022-11-03T09:29:05.236Z,75.05
2022-11-03T09:30:13.175Z,75.15
2022-11-03T09:31:05.034Z,74.74
2022-11-03T09:32:05.508Z,74.51
2022-11-03T09:33:05.310Z,74.71
2022-11-03T09:34:05.409Z,74.41
2022-11-03T09:35:05.300Z,74.00
2022-11-03T09:36:04.935Z,73.29
2022-11-03T09:37:04.927Z,74.17
2022-11-03T09:38:05.278Z,73.25
2022-11-03T09:39:05.305Z,72.85
2022-11-03T09:40:04.884Z,73.05
2022-11-03T09:41:13.442Z,72.96
2022-11-03T09:42:05.028Z,72.92
2022-11-03T09:43:05.458Z,73.63
2022-11-03T09:44:04.887Z,73.53
2022-11-03T09:45:04.898Z,73.12
2022-11-03T09:46:05.167Z,72.61
2022-11-03T09:47:04.989Z,71.00
2022-11-03T09:48:05.858Z,71.70
2022-11-03T09:49:05.264Z,72.01
2022-11-03T09:50:05.701Z,73.63
2022-11-03T09:51:04.980Z,72.17
2022-11-03T09:52:05.288Z,70.25
2022-11-03T09:53:05.165Z,71.97
2022-11-03T09:54:04.798Z,71.26
2022-11-03T09:55:05.513Z,71.23
2022-11-03T09:56:04.983Z,70.83
2022-11-03T09:57:04.958Z,68.50
2022-11-03T09:58:05.336Z,70.52
2022-11-03T09:59:05.136Z,70.09
2022-11-03T10:00:04.696Z,69.58
2022-11-03T10:01:05.036Z,69.38
2022-11-03T10:02:05.200Z,69.89
2022-11-03T10:03:05.269Z,69.07
2022-11-03T10:04:04.648Z,67.79
2022-11-03T10:05:10.711Z,68.60
2022-11-03T10:06:04.788Z,69.41
2022-11-03T10:07:04.682Z,70.83
2022-11-03T10:08:04.812Z,68.70
2022-11-03T10:09:04.752Z,69.41
2022-11-03T10:10:04.836Z,69.51
2022-11-03T10:11:04.708Z,68.63
2022-11-03T10:12:04.700Z,69.04
2022-11-03T10:13:05.048Z,70.45
2022-11-03T10:14:04.736Z,69.85
2022-11-03T10:15:04.760Z,71.16
2022-11-03T10:16:04.991Z,69.95
2022-11-03T10:17:04.669Z,69.74
2022-11-03T10:18:04.677Z,71.06
2022-11-03T10:19:04.687Z,70.25
2022-11-03T10:20:04.999Z,71.06
2022-11-03T10:21:04.665Z,70.65
2022-11-03T10:22:04.661Z,70.25
2022-11-03T10:23:05.014Z,70.65
2022-11-03T10:24:04.877Z,69.74
2022-11-03T10:25:04.486Z,70.36
2022-11-03T10:26:04.823Z,70.76
2022-11-03T10:27:04.540Z,70.05
2022-11-03T10:28:04.470Z,69.48
2022-11-03T10:29:04.546Z,71.00
2022-11-03T10:30:04.665Z,71.40
2022-11-03T10:31:12.902Z,71.00
2022-11-03T10:32:04.727Z,69.88
2022-11-03T10:33:05.006Z,68.77
2022-11-03T10:34:04.399Z,69.57
2022-11-03T10:35:04.361Z,70.39
2022-11-03T10:36:04.375Z,69.44
2022-11-03T10:37:04.731Z,68.94
2022-11-03T10:38:04.816Z,71.16
2022-11-03T10:39:04.529Z,70.05
2022-11-03T10:40:06.928Z,69.74
2022-11-03T10:41:04.335Z,70.76
2022-11-03T10:42:04.294Z,69.44
2022-11-03T10:43:04.582Z,69.34
2022-11-03T10:44:04.341Z,69.34
2022-11-03T10:45:04.426Z,70.65
2022-11-03T10:46:06.220Z,70.36
2022-11-03T10:47:04.448Z,70.76
2022-11-03T10:48:04.765Z,70.25
2022-11-03T10:49:04.649Z,69.44
2022-11-03T10:50:04.927Z,69.85
2022-11-03T10:51:04.230Z,69.54
2022-11-03T10:52:04.176Z,68.94
2022-11-03T10:53:04.384Z,68.33
2022-11-03T10:54:04.236Z,68.33
2022-11-03T10:55:04.498Z,68.43
2022-11-03T10:56:04.364Z,68.73
2022-11-03T10:57:04.273Z,69.74
2022-11-03T10:58:04.754Z,68.63
2022-11-03T10:59:04.310Z,68.53
2022-11-03T11:00:04.106Z,68.94
2022-11-03T11:01:04.521Z,67.82
2022-11-03T11:02:04.713Z,67.93
2022-11-03T11:03:04.546Z,67.62
2022-11-03T11:04:04.263Z,67.93
2022-11-03T11:05:04.080Z,68.23
2022-11-03T11:06:04.075Z,68.53
2022-11-03T11:07:04.148Z,68.10
2022-11-03T11:08:04.239Z,66.67
2022-11-03T11:09:04.353Z,67.79
2022-11-03T11:10:04.132Z,69.18
2022-11-03T11:11:04.065Z,69.18
2022-11-03T11:12:04.241Z,67.96
2022-11-03T11:13:04.727Z,67.66
2022-11-03T11:14:04.041Z,68.57
2022-11-03T11:15:04.271Z,66.72
2022-11-03T11:16:04.323Z,68.23
2022-11-03T11:17:03.992Z,67.43
2022-11-03T11:18:03.901Z,67.09
2022-11-03T11:19:04.034Z,67.69
2022-11-03T11:20:04.233Z,66.25
2022-11-03T11:21:03.920Z,65.41
2022-11-03T11:22:03.953Z,65.78
2022-11-03T11:23:04.279Z,65.18
2022-11-03T11:24:04.440Z,64.54
2022-11-03T11:25:04.084Z,63.53
2022-11-03T11:26:04.330Z,63.50
2022-11-03T11:27:04.037Z,63.78
2022-11-03T11:28:04.075Z,64.89
2022-11-03T11:29:03.994Z,63.98
2022-11-03T11:30:03.864Z,62.57
2022-11-03T11:31:03.963Z,60.96
2022-11-03T11:32:04.204Z,62.97
2022-11-03T11:33:04.126Z,62.26
2022-11-03T11:34:03.808Z,61.93
2022-11-03T11:35:03.822Z,61.33
2022-11-03T11:36:03.948Z,62.01
2022-11-03T11:37:04.121Z,60.33
2022-11-03T11:38:03.808Z,58.50
2022-11-03T11:39:04.021Z,58.14
2022-11-03T11:40:03.814Z,56.61
2022-11-03T11:41:03.760Z,55.95
2022-11-03T11:42:03.895Z,55.82
2022-11-03T11:43:04.172Z,54.82
2022-11-03T11:44:03.738Z,53.62
2022-11-03T11:45:03.729Z,55.05
2022-11-03T11:46:04.075Z,54.07
2022-11-03T11:47:03.828Z,55.51
2022-11-03T11:48:03.679Z,56.03
2022-11-03T11:49:03.767Z,56.46
2022-11-03T11:50:03.697Z,57.29
2022-11-03T11:51:03.609Z,57.92
2022-11-03T11:52:03.805Z,59.53
2022-11-03T11:53:04.258Z,57.02
2022-11-03T11:54:17.518Z,59.33
2022-11-03T11:55:03.589Z,59.83
2022-11-03T11:56:03.764Z,58.00
2022-11-03T11:57:04.207Z,56.86
2022-11-03T11:58:03.743Z,55.73
2022-11-03T11:59:04.076Z,56.49
2022-11-03T12:00:03.509Z,57.24
2022-11-03T12:01:03.500Z,58.18
2022-11-03T12:02:03.696Z,60.22
2022-11-03T12:03:03.818Z,60.28
2022-11-03T12:04:03.672Z,61.32
2022-11-03T12:05:03.490Z,62.93
2022-11-03T12:06:03.547Z,62.76
2022-11-03T12:07:03.653Z,62.48
2022-11-03T12:08:03.835Z,62.99
2022-11-03T12:09:03.629Z,63.87
2022-11-03T12:10:03.603Z,63.56
2022-11-03T12:11:03.523Z,61.59
2022-11-03T12:12:08.289Z,62.09
2022-11-03T12:13:03.634Z,61.36
2022-11-03T12:14:03.502Z,61.49
2022-11-03T12:15:03.421Z,62.09
2022-11-03T12:16:04.024Z,61.21
2022-11-03T12:17:03.405Z,61.95
2022-11-03T12:18:03.468Z,62.88
2022-11-03T12:19:03.564Z,64.00
2022-11-03T12:20:03.576Z,64.94
2022-11-03T12:21:03.485Z,65.24
2022-11-03T12:22:03.918Z,65.37
2022-11-03T12:23:03.928Z,66.08
2022-11-03T12:24:03.368Z,66.28
2022-11-03T12:25:03.668Z,67.29
2022-11-03T12:26:03.343Z,66.92
2022-11-03T12:27:03.344Z,66.21
2022-11-03T12:28:03.578Z,66.14
2022-11-03T12:29:03.268Z,67.35
2022-11-03T12:30:03.551Z,66.88
2022-11-03T12:31:03.436Z,67.89
2022-11-03T12:32:03.576Z,67.29
2022-11-03T12:33:03.370Z,67.79
2022-11-03T12:34:03.379Z,67.79
2022-11-03T12:35:03.236Z,68.80
2022-11-03T12:36:03.209Z,67.69
2022-11-03T12:37:03.235Z,68.30
2022-11-03T12:38:03.701Z,67.22
2022-11-03T12:39:03.240Z,67.32
2022-11-03T12:40:03.495Z,67.42
2022-11-03T12:41:03.585Z,67.69
2022-11-03T12:42:03.324Z,68.40
2022-11-03T12:43:03.373Z,67.46
2022-11-03T12:44:03.530Z,66.21
2022-11-03T12:45:03.289Z,67.12
2022-11-03T12:46:03.244Z,66.58
2022-11-03T12:47:03.217Z,66.75
2022-11-03T12:48:03.138Z,64.73
2022-11-03T12:49:03.126Z,65.07
2022-11-03T12:50:03.066Z,66.08
2022-11-03T12:51:03.149Z,65.67
2022-11-03T12:52:07.757Z,66.69
2022-11-03T12:53:03.005Z,65.98
2022-11-03T12:54:03.355Z,67.43
2022-11-03T12:55:02.990Z,66.01
2022-11-03T12:56:03.172Z,67.43
2022-11-03T12:57:03.933Z,66.52
2022-11-03T12:58:03.149Z,66.85
2022-11-03T12:59:02.996Z,68.06